Time;durP1;ratioP1;P1;durP2;ratioP2;P2;SDS_P1;SDS_P2;PMS_P1;PMS_P2;Temp;Humidity;BMP_temperature;BMP_pressure;BME280_temperature;BME280_humidity;BME280_pressure;Samples;Min_cycle;Max_cycle;Signal;HPM_P1;HPM_P2
2022/07/27 00:01:15;;;;;;;3.47;1.70;;;;;;;;;;7312859;19;154864;-15
2022/07/27 00:03:46;;;;;;;1.88;1.40;;;;;;;;;;7312741;19;162711;-16
2022/07/27 00:06:18;;;;;;;3.03;1.40;;;;;;;;;;7314115;19;163255;-16
2022/07/27 00:08:49;;;;;;;2.67;1.60;;;;;;;;;;7312728;19;154175;-16
2022/07/27 00:11:21;;;;;;;2.85;1.50;;;;;;;;;;7310918;19;154491;-16
2022/07/27 00:13:52;;;;;;;2.83;1.52;;;;;;;;;;7312441;19;162659;-16
2022/07/27 00:16:26;;;;;;;2.65;1.45;;;;;;;;;;7312692;19;163279;-16
2022/07/27 00:18:57;;;;;;;3.47;1.77;;;;;;;;;;7313286;19;154455;-16
2022/07/27 00:21:28;;;;;;;2.40;1.27;;;;;;;;;;7311246;19;153953;-24
2022/07/27 00:24:00;;;;;;;4.05;1.20;;;;;;;;;;7312229;19;162334;-16
2022/07/27 00:26:31;;;;;;;3.42;1.58;;;;;;;;;;7310308;19;162853;-17
2022/07/27 00:29:04;;;;;;;3.05;1.20;;;;;;;;;;7311941;19;154473;-17
2022/07/27 00:31:38;;;;;;;1.48;1.20;;;;;;;;;;7309534;19;153878;-16
2022/07/27 00:34:10;;;;;;;2.00;1.27;;;;;;;;;;7311304;19;163476;-17
2022/07/27 00:36:41;;;;;;;3.90;1.55;;;;;;;;;;7310343;19;163906;-17
2022/07/27 00:39:12;;;;;;;2.20;1.52;;;;;;;;;;7312310;19;154494;-16
2022/07/27 00:41:43;;;;;;;2.85;1.30;;;;;;;;;;7310834;19;154471;-16
2022/07/27 00:44:15;;;;;;;2.67;1.30;;;;;;;;;;7311725;19;162667;-17
2022/07/27 00:46:49;;;;;;;3.20;1.10;;;;;;;;;;7311061;19;164191;-16
2022/07/27 00:49:20;;;;;;;1.83;1.30;;;;;;;;;;7312018;19;154805;-16
2022/07/27 00:51:52;;;;;;;2.20;1.58;;;;;;;;;;7309231;19;154325;-16
2022/07/27 00:54:24;;;;;;;2.80;1.37;;;;;;;;;;7310788;19;162239;-16
2022/07/27 00:56:56;;;;;;;4.28;1.30;;;;;;;;;;7311028;19;163407;-16
2022/07/27 00:59:28;;;;;;;2.33;1.27;;;;;;;;;;7311851;19;154532;-17
2022/07/27 01:02:02;;;;;;;1.43;1.23;;;;;;;;;;7311233;19;153943;-16
2022/07/27 01:04:33;;;;;;;3.33;1.38;;;;;;;;;;7311065;19;162767;-16
2022/07/27 01:07:06;;;;;;;8.63;1.27;;;;;;;;;;7310498;19;162791;-16
2022/07/27 01:12:22;;;;;;;4.47;0.98;;;;;;;;;;7307259;19;154567;-17
2022/07/27 01:14:56;;;;;;;4.05;0.98;;;;;;;;;;7310311;19;162697;-16
2022/07/27 01:17:32;;;;;;;4.38;1.60;;;;;;;;;;7308441;19;163252;-17
2022/07/27 01:20:04;;;;;;;8.13;1.10;;;;;;;;;;7311854;19;154734;-16
2022/07/27 01:22:37;;;;;;;8.80;1.20;;;;;;;;;;7311478;19;154011;-16
2022/07/27 01:25:11;;;;;;;3.08;1.30;;;;;;;;;;7311201;19;162362;-17
2022/07/27 01:27:42;;;;;;;4.05;1.13;;;;;;;;;;7310593;19;162812;-18
2022/07/27 01:33:09;;;;;;;6.82;1.70;;;;;;;;;;7310947;19;154046;-16
2022/07/27 01:35:41;;;;;;;3.63;1.15;;;;;;;;;;7310611;19;162756;-17
2022/07/27 01:38:15;;;;;;;4.38;1.33;;;;;;;;;;7313699;19;162879;-17
2022/07/27 01:40:46;;;;;;;3.38;1.10;;;;;;;;;;7317557;19;154515;-17
2022/07/27 01:43:18;;;;;;;4.47;1.00;;;;;;;;;;7317507;19;153945;-16
2022/07/27 01:45:49;;;;;;;1.63;1.17;;;;;;;;;;7315351;19;162364;-25
2022/07/27 01:48:20;;;;;;;2.00;0.80;;;;;;;;;;7316897;19;162928;-17
2022/07/27 01:50:52;;;;;;;2.90;1.30;;;;;;;;;;7316660;19;154481;-17
2022/07/27 01:53:26;;;;;;;3.78;1.30;;;;;;;;;;7317072;19;153974;-16
2022/07/27 01:55:58;;;;;;;3.33;1.20;;;;;;;;;;7316782;19;162244;-17
2022/07/27 01:58:29;;;;;;;4.50;1.20;;;;;;;;;;7316570;19;163305;-17
2022/07/27 02:01:00;;;;;;;2.20;1.13;;;;;;;;;;7315479;19;154915;-16
2022/07/27 02:03:31;;;;;;;1.27;1.17;;;;;;;;;;7316666;19;154655;-16
2022/07/27 02:06:03;;;;;;;2.67;0.90;;;;;;;;;;7316580;19;162770;-17
2022/07/27 02:08:37;;;;;;;1.27;1.15;;;;;;;;;;7316371;19;163320;-16
2022/07/27 02:13:52;;;;;;;3.80;1.27;;;;;;;;;;7316320;19;153953;-16
2022/07/27 02:16:23;;;;;;;3.65;1.00;;;;;;;;;;7315416;19;162174;-16
2022/07/27 02:18:54;;;;;;;2.55;0.80;;;;;;;;;;7316248;19;163274;-16
2022/07/27 02:21:26;;;;;;;2.70;0.90;;;;;;;;;;7316477;19;154463;-16
2022/07/27 02:24:00;;;;;;;2.25;1.08;;;;;;;;;;7316200;19;154008;-16
2022/07/27 02:26:31;;;;;;;1.98;1.10;;;;;;;;;;7315842;19;162234;-17
2022/07/27 02:29:02;;;;;;;1.65;1.10;;;;;;;;;;7315885;19;162863;-16
2022/07/27 02:31:34;;;;;;;2.22;1.35;;;;;;;;;;7313615;19;154947;-16
2022/07/27 02:34:05;;;;;;;3.55;1.27;;;;;;;;;;7315953;19;154026;-16
2022/07/27 02:36:36;;;;;;;1.13;0.85;;;;;;;;;;7315269;19;162779;-16
2022/07/27 02:39:10;;;;;;;2.50;0.70;;;;;;;;;;7315487;19;163210;-17
2022/07/27 02:41:41;;;;;;;1.98;1.00;;;;;;;;;;7313900;19;154576;-16
2022/07/27 02:44:13;;;;;;;4.90;1.20;;;;;;;;;;7315724;19;153873;-16
2022/07/27 02:46:44;;;;;;;2.20;1.00;;;;;;;;;;7315422;19;162816;-16
2022/07/27 02:49:16;;;;;;;2.35;1.15;;;;;;;;;;7313034;19;162764;-16
2022/07/27 02:51:47;;;;;;;2.03;1.10;;;;;;;;;;7314867;19;154617;-16
2022/07/27 02:54:23;;;;;;;1.52;0.80;;;;;;;;;;7315473;19;154032;-16
2022/07/27 02:56:56;;;;;;;1.52;0.95;;;;;;;;;;7315087;19;162638;-17
2022/07/27 02:59:28;;;;;;;1.42;1.02;;;;;;;;;;7314842;19;163350;-16
2022/07/27 03:01:59;;;;;;;1.17;0.80;;;;;;;;;;7315510;19;154456;-16
2022/07/27 03:04:30;;;;;;;0.98;0.77;;;;;;;;;;7315128;19;154096;-16
2022/07/27 03:07:01;;;;;;;1.10;0.93;;;;;;;;;;7314779;19;162273;-17
2022/07/27 03:09:35;;;;;;;2.05;1.15;;;;;;;;;;7314628;19;163250;-16
2022/07/27 03:12:07;;;;;;;2.20;0.88;;;;;;;;;;7314022;19;154748;-14
2022/07/27 03:14:38;;;;;;;2.25;1.08;;;;;;;;;;7313607;19;154560;-14
2022/07/27 03:17:10;;;;;;;2.40;1.10;;;;;;;;;;7314338;19;162224;-15
2022/07/27 03:19:41;;;;;;;2.25;1.00;;;;;;;;;;7314316;19;163440;-14
2022/07/27 03:22:12;;;;;;;2.25;0.85;;;;;;;;;;7314923;19;154437;-15
2022/07/27 03:24:46;;;;;;;1.58;1.00;;;;;;;;;;7314269;19;154720;-15
2022/07/27 03:27:17;;;;;;;1.42;1.13;;;;;;;;;;7314152;19;162613;-15
2022/07/27 03:29:49;;;;;;;1.55;1.10;;;;;;;;;;7313256;19;162773;-15
2022/07/27 03:32:20;;;;;;;2.58;0.98;;;;;;;;;;7313581;19;154487;-15
2022/07/27 03:34:53;;;;;;;1.83;1.10;;;;;;;;;;7313905;19;154556;-14
2022/07/27 03:37:24;;;;;;;1.60;0.98;;;;;;;;;;7313593;19;162619;-15
2022/07/27 03:39:58;;;;;;;2.05;0.93;;;;;;;;;;7313953;19;163196;-17
2022/07/27 03:42:29;;;;;;;0.80;0.80;;;;;;;;;;7314063;19;154844;-15
2022/07/27 03:45:00;;;;;;;3.00;0.93;;;;;;;;;;7312332;19;154475;-15
2022/07/27 03:47:33;;;;;;;1.25;0.80;;;;;;;;;;7313514;19;162382;-15
2022/07/27 03:50:05;;;;;;;1.67;0.70;;;;;;;;;;7313755;19;162873;-15
2022/07/27 03:52:37;;;;;;;1.60;0.93;;;;;;;;;;7313104;19;154426;-15
2022/07/27 03:55:11;;;;;;;1.15;0.95;;;;;;;;;;7313658;19;153979;-14
2022/07/27 03:57:42;;;;;;;1.25;0.90;;;;;;;;;;7313145;19;162289;-14
2022/07/27 04:00:15;;;;;;;2.03;0.90;;;;;;;;;;7312942;19;163289;-15
2022/07/27 04:02:46;;;;;;;2.42;1.00;;;;;;;;;;7313581;19;154442;-15
2022/07/27 04:05:17;;;;;;;1.08;0.95;;;;;;;;;;7312073;19;153927;-15
2022/07/27 04:07:48;;;;;;;1.73;1.13;;;;;;;;;;7313028;19;162334;-15
2022/07/27 04:10:22;;;;;;;1.55;0.88;;;;;;;;;;7313145;19;162801;-15
2022/07/27 04:12:53;;;;;;;1.20;1.00;;;;;;;;;;7310880;19;154899;-17
2022/07/27 04:15:25;;;;;;;2.25;0.85;;;;;;;;;;7311558;19;154037;-16
2022/07/27 04:17:56;;;;;;;2.38;1.00;;;;;;;;;;7312978;19;162740;-15
2022/07/27 04:20:28;;;;;;;0.95;0.90;;;;;;;;;;7312782;19;163003;-15
2022/07/27 04:22:59;;;;;;;0.60;0.60;;;;;;;;;;7313258;19;154567;-15
2022/07/27 04:25:33;;;;;;;0.70;0.65;;;;;;;;;;7313030;19;154290;-16
2022/07/27 04:28:04;;;;;;;1.70;1.00;;;;;;;;;;7312415;19;162335;-15
2022/07/27 04:30:35;;;;;;;0.85;0.60;;;;;;;;;;7310920;19;162989;-15
2022/07/27 04:33:07;;;;;;;0.80;0.80;;;;;;;;;;7310215;19;154977;-15
2022/07/27 04:35:38;;;;;;;1.10;0.80;;;;;;;;;;7312380;19;153595;-15
2022/07/27 04:38:09;;;;;;;1.10;0.60;;;;;;;;;;7312320;19;162270;-15
2022/07/27 04:40:43;;;;;;;3.53;0.95;;;;;;;;;;7312016;19;163154;-15
2022/07/27 04:43:14;;;;;;;1.20;0.93;;;;;;;;;;7312599;19;154429;-19
2022/07/27 04:45:45;;;;;;;1.55;0.80;;;;;;;;;;7312404;19;154084;-16
2022/07/27 04:48:17;;;;;;;1.02;0.93;;;;;;;;;;7311772;19;162174;-18
2022/07/27 04:50:49;;;;;;;1.70;0.80;;;;;;;;;;7312074;19;163318;-15
2022/07/27 04:53:20;;;;;;;2.97;1.05;;;;;;;;;;7311390;19;154399;-15
2022/07/27 04:55:54;;;;;;;0.98;0.80;;;;;;;;;;7312540;19;153962;-15
2022/07/27 04:58:25;;;;;;;1.02;0.93;;;;;;;;;;7311552;19;162266;-15
2022/07/27 05:00:56;;;;;;;0.82;0.70;;;;;;;;;;7311655;19;162907;-15
2022/07/27 05:03:27;;;;;;;1.00;0.90;;;;;;;;;;7312051;19;154554;-16
2022/07/27 05:05:58;;;;;;;1.88;1.00;;;;;;;;;;7311824;19;153931;-15
2022/07/27 05:08:30;;;;;;;2.55;0.95;;;;;;;;;;7310443;19;162381;-15
2022/07/27 05:11:04;;;;;;;3.97;1.30;;;;;;;;;;7311066;19;162946;-15
2022/07/27 05:13:36;;;;;;;1.75;0.98;;;;;;;;;;7309643;19;154574;-15
2022/07/27 05:16:09;;;;;;;2.97;1.33;;;;;;;;;;7311793;19;154283;-16
2022/07/27 05:18:40;;;;;;;;;;;;;;;;;;7309831;19;162854;-15
2022/07/27 05:21:11;;;;;;;1.50;0.80;;;;;;;;;;7311210;19;163434;-15
2022/07/27 05:23:43;;;;;;;3.97;1.20;;;;;;;;;;7311383;19;154645;-15
2022/07/27 05:26:17;;;;;;;2.83;1.33;;;;;;;;;;7311751;19;154029;-17
2022/07/27 05:28:48;;;;;;;4.30;1.10;;;;;;;;;;7311145;19;162263;-16
2022/07/27 05:31:20;;;;;;;3.25;1.10;;;;;;;;;;7308178;19;162963;-16
2022/07/27 05:33:51;;;;;;;3.35;1.13;;;;;;;;;;7307761;19;154924;-16
2022/07/27 05:36:27;;;;;;;2.20;1.17;;;;;;;;;;7310419;19;154053;-15
2022/07/27 05:38:58;;;;;;;2.35;1.17;;;;;;;;;;7309887;19;162797;-15
2022/07/27 05:41:32;;;;;;;4.53;1.08;;;;;;;;;;7309721;19;162883;-15
2022/07/27 05:44:04;;;;;;;3.28;1.30;;;;;;;;;;7307933;19;154527;-16
2022/07/27 05:46:38;;;;;;;10.38;1.52;;;;;;;;;;7306564;19;154166;-16
2022/07/27 05:49:10;;;;;;;5.18;1.17;;;;;;;;;;7304556;19;162186;-15
2022/07/27 05:51:42;;;;;;;1.48;1.20;;;;;;;;;;7309024;19;162778;-16
2022/07/27 05:54:13;;;;;;;6.57;1.63;;;;;;;;;;7309303;19;154531;-15
2022/07/27 05:56:47;;;;;;;3.47;1.00;;;;;;;;;;7310606;19;153962;-16
2022/07/27 05:59:18;;;;;;;1.42;0.98;;;;;;;;;;7310004;19;162298;-15
2022/07/27 06:01:50;;;;;;;5.10;1.35;;;;;;;;;;7309684;19;163328;-16
2022/07/27 06:04:21;;;;;;;2.45;1.45;;;;;;;;;;7309990;19;154557;-16
2022/07/27 06:09:36;;;;;;;1.92;1.15;;;;;;;;;;7309660;19;161769;-16
2022/07/27 06:12:11;;;;;;;3.78;1.23;;;;;;;;;;7308476;19;163874;-16
2022/07/27 06:14:42;;;;;;;2.40;1.00;;;;;;;;;;7308101;19;154451;-15
2022/07/27 06:17:14;;;;;;;1.98;1.17;;;;;;;;;;7308439;19;154150;-16
2022/07/27 06:19:45;;;;;;;2.88;1.00;;;;;;;;;;7309549;19;162236;-16
2022/07/27 06:22:18;;;;;;;2.55;1.33;;;;;;;;;;7309274;19;162862;-15
2022/07/27 06:24:49;;;;;;;2.95;1.40;;;;;;;;;;7312952;19;154553;-16
2022/07/27 06:27:23;;;;;;;3.92;1.20;;;;;;;;;;7316296;19;155412;-16
2022/07/27 06:29:56;;;;;;;3.80;1.38;;;;;;;;;;7314768;19;162260;-15
2022/07/27 06:32:27;;;;;;;2.95;1.20;;;;;;;;;;7315543;19;163328;-16
2022/07/27 06:34:59;;;;;;;2.72;1.50;;;;;;;;;;7314847;19;154399;-16
2022/07/27 06:37:30;;;;;;;7.13;1.70;;;;;;;;;;7315816;19;153924;-16
2022/07/27 06:40:02;;;;;;;3.28;1.52;;;;;;;;;;7315557;19;162217;-15
2022/07/27 06:42:36;;;;;;;4.72;1.48;;;;;;;;;;7315013;19;162908;-16
2022/07/27 06:45:09;;;;;;;2.47;1.48;;;;;;;;;;7314810;19;154561;-15
2022/07/27 06:47:42;;;;;;;4.32;1.30;;;;;;;;;;7315626;19;154050;-16
2022/07/27 06:50:13;;;;;;;3.63;1.90;;;;;;;;;;7313402;19;162256;-15
2022/07/27 06:52:45;;;;;;;4.93;1.52;;;;;;;;;;7315065;19;162386;-16
2022/07/27 06:55:16;;;;;;;4.43;1.40;;;;;;;;;;7313896;19;154441;-15
2022/07/27 06:57:50;;;;;;;5.20;1.55;;;;;;;;;;7315425;19;154488;-16
2022/07/27 07:00:21;;;;;;;2.33;1.65;;;;;;;;;;7314908;19;162346;-16
2022/07/27 07:02:54;;;;;;;3.50;1.30;;;;;;;;;;7315211;19;162916;-16
2022/07/27 07:05:25;;;;;;;;;;;;;;;;;;7315729;19;154493;-16
2022/07/27 07:07:56;;;;;;;5.13;1.90;;;;;;;;;;7315145;19;154320;-16
2022/07/27 07:10:28;;;;;;;4.65;2.10;;;;;;;;;;7314929;19;162385;-17
2022/07/27 07:13:06;;;;;;;5.40;1.70;;;;;;;;;;7314864;19;162929;-16
2022/07/27 07:15:38;;;;;;;10.32;2.05;;;;;;;;;;7313570;19;154437;-16
2022/07/27 07:18:09;;;;;;;2.72;1.95;;;;;;;;;;7314658;19;155060;-17
2022/07/27 07:20:41;;;;;;;3.97;1.90;;;;;;;;;;7314553;19;162284;-16
2022/07/27 07:23:13;;;;;;;5.10;1.83;;;;;;;;;;7314395;19;162790;-16
2022/07/27 07:25:44;;;;;;;4.20;2.13;;;;;;;;;;7314775;19;154496;-16
2022/07/27 07:28:20;;;;;;;2.50;1.45;;;;;;;;;;7314738;19;154503;-24
2022/07/27 07:30:52;;;;;;;4.95;1.77;;;;;;;;;;7312398;19;162654;-16
2022/07/27 07:33:23;;;;;;;5.68;1.83;;;;;;;;;;7314075;19;163165;-16
2022/07/27 07:35:54;;;;;;;4.75;1.52;;;;;;;;;;7312056;19;154853;-16
2022/07/27 07:38:25;;;;;;;3.60;1.70;;;;;;;;;;7314582;19;153969;-16
2022/07/27 07:40:56;;;;;;;5.85;1.90;;;;;;;;;;7313497;19;162224;-16
2022/07/27 07:43:30;;;;;;;11.57;2.08;;;;;;;;;;7313482;19;162790;-16
2022/07/27 07:46:01;;;;;;;5.35;1.98;;;;;;;;;;7314230;19;154525;-16
2022/07/27 07:48:33;;;;;;;2.85;1.50;;;;;;;;;;7312321;19;154493;-18
2022/07/27 07:51:04;;;;;;;3.78;1.48;;;;;;;;;;7312022;19;162872;-18
2022/07/27 07:53:35;;;;;;;5.78;1.58;;;;;;;;;;7313320;19;162857;-17
2022/07/27 07:56:11;;;;;;;7.25;1.60;;;;;;;;;;7312099;19;154924;-16
2022/07/27 07:58:44;;;;;;;2.83;1.23;;;;;;;;;;7313957;19;153933;-16
2022/07/27 08:01:16;;;;;;;4.22;1.40;;;;;;;;;;7313357;19;162212;-17
2022/07/27 08:03:47;;;;;;;5.05;1.90;;;;;;;;;;7312853;19;162782;-15
2022/07/27 08:06:20;;;;;;;4.45;1.50;;;;;;;;;;7313362;19;154754;-15
2022/07/27 08:08:51;;;;;;;3.92;1.38;;;;;;;;;;7311761;19;154395;-15
2022/07/27 08:11:23;;;;;;;4.55;1.48;;;;;;;;;;7313616;19;162853;-17
2022/07/27 08:13:57;;;;;;;3.90;1.10;;;;;;;;;;7312900;19;163374;-16
2022/07/27 08:16:28;;;;;;;4.93;1.55;;;;;;;;;;7311264;19;154581;-16
2022/07/27 08:18:59;;;;;;;3.70;1.35;;;;;;;;;;7313429;19;154297;-16
2022/07/27 08:21:30;;;;;;;3.92;1.40;;;;;;;;;;7312674;19;162655;-15
2022/07/27 08:24:02;;;;;;;1.55;1.40;;;;;;;;;;7312903;19;162949;-16
2022/07/27 08:26:33;;;;;;;3.15;1.17;;;;;;;;;;7312963;19;154932;-16
2022/07/27 08:29:07;;;;;;;3.35;1.35;;;;;;;;;;7312792;19;154108;-16
2022/07/27 08:31:43;;;;;;;1.92;1.08;;;;;;;;;;7309623;19;167032;-16
2022/07/27 08:34:15;;;;;;;2.50;1.10;;;;;;;;;;7312064;19;163278;-16
2022/07/27 08:36:49;;;;;;;1.90;1.05;;;;;;;;;;7311345;19;133314;-16
2022/07/27 08:39:20;;;;;;;2.35;1.05;;;;;;;;;;7312245;19;154528;-15
2022/07/27 08:42:13;;;;;;;2.40;1.08;;;;;;;;;;7312290;19;161853;-16
2022/07/27 08:44:46;;;;;;;;;;;;;;;;;;7312664;19;163210;-16
2022/07/27 08:47:18;;;;;;;1.55;1.00;;;;;;;;;;7310193;19;154019;-16
2022/07/27 08:49:50;;;;;;;1.60;1.10;;;;;;;;;;7312019;19;154454;-16
2022/07/27 08:52:22;;;;;;;1.98;1.15;;;;;;;;;;7310559;19;162246;-16
2022/07/27 08:54:53;;;;;;;1.73;1.02;;;;;;;;;;7311857;19;163379;-15
2022/07/27 08:57:24;;;;;;;3.03;1.23;;;;;;;;;;7310047;19;154580;-16
2022/07/27 08:59:58;;;;;;;3.17;1.15;;;;;;;;;;7311856;19;153977;-15
2022/07/27 09:02:29;;;;;;;6.75;1.48;;;;;;;;;;7312066;19;162847;-15
2022/07/27 09:05:00;;;;;;;3.08;1.35;;;;;;;;;;7311384;19;163200;-15
2022/07/27 09:07:32;;;;;;;2.67;1.52;;;;;;;;;;7311319;19;155015;-15
2022/07/27 09:10:03;;;;;;;2.75;1.27;;;;;;;;;;7311560;19;154022;-16
2022/07/27 09:12:36;;;;;;;3.03;1.20;;;;;;;;;;7311498;19;162321;-16
2022/07/27 09:15:13;;;;;;;4.30;1.47;;;;;;;;;;7311188;19;163321;-16
2022/07/27 09:17:45;;;;;;;5.07;1.30;;;;;;;;;;7309027;19;154445;-16
2022/07/27 09:20:20;;;;;;;2.78;1.33;;;;;;;;;;7311504;19;154481;-17
2022/07/27 09:22:52;;;;;;;2.55;1.10;;;;;;;;;;7311055;19;162848;-17
2022/07/27 09:25:26;;;;;;;5.05;1.48;;;;;;;;;;7311029;19;162786;-16
2022/07/27 09:28:14;;;;;;;6.13;1.15;;;;;;;;;;7311164;19;154542;-16
2022/07/27 09:30:48;;;;;;;2.35;1.08;;;;;;;;;;7308989;19;154331;-17
2022/07/27 09:33:20;;;;;;;2.83;1.15;;;;;;;;;;7310355;19;162688;-17
2022/07/27 09:36:00;;;;;;;2.97;1.25;;;;;;;;;;7308700;19;162855;-16
2022/07/27 09:38:31;;;;;;;4.22;1.30;;;;;;;;;;7310797;19;154603;-17
2022/07/27 09:41:04;;;;;;;4.78;1.40;;;;;;;;;;7310704;19;154611;-16
2022/07/27 09:43:46;;;;;;;3.10;1.42;;;;;;;;;;7308985;19;162226;-17
2022/07/27 09:46:45;;;;;;;1.87;1.00;;;;;;;;;;7310077;19;162869;-16
2022/07/27 09:49:31;;;;;;;3.38;1.30;;;;;;;;;;7310354;19;154394;-17
2022/07/27 09:52:04;;;;;;;0.88;0.82;;;;;;;;;;7310084;19;154042;-17
2022/07/27 09:54:45;;;;;;;3.50;1.25;;;;;;;;;;7310305;19;162690;-16
2022/07/27 09:57:17;;;;;;;1.83;1.10;;;;;;;;;;7308432;19;163304;-17
2022/07/27 09:59:48;;;;;;;2.08;1.13;;;;;;;;;;7315548;19;154138;-17
2022/07/27 10:02:23;;;;;;;3.22;1.17;;;;;;;;;;7316713;19;154051;-17
2022/07/27 10:04:55;;;;;;;3.13;1.00;;;;;;;;;;7315032;19;162224;-17
2022/07/27 10:07:26;;;;;;;6.03;1.27;;;;;;;;;;7316325;19;162785;-16
2022/07/27 10:09:57;;;;;;;3.90;1.00;;;;;;;;;;7316933;19;154676;-17
2022/07/27 10:12:31;;;;;;;2.92;1.10;;;;;;;;;;7316520;19;154617;-17
2022/07/27 10:15:02;;;;;;;2.10;1.00;;;;;;;;;;7314411;19;162443;-17
2022/07/27 10:17:37;;;;;;;2.08;0.90;;;;;;;;;;7314856;19;163376;-17
2022/07/27 10:20:10;;;;;;;3.33;1.38;;;;;;;;;;7316801;19;154782;-17
2022/07/27 10:23:00;;;;;;;2.90;0.90;;;;;;;;;;7316196;19;153962;-17
2022/07/27 10:25:32;;;;;;;1.98;1.00;;;;;;;;;;7315774;19;162753;-16
2022/07/27 10:28:13;;;;;;;2.40;0.90;;;;;;;;;;7315583;19;163220;-17
2022/07/27 10:30:45;;;;;;;1.42;1.00;;;;;;;;;;7314352;19;154825;-17
2022/07/27 10:33:45;;;;;;;2.42;1.05;;;;;;;;;;7316287;19;154243;-26
2022/07/27 10:36:18;;;;;;;3.03;1.20;;;;;;;;;;7315241;19;162701;-18
2022/07/27 10:38:51;;;;;;;3.28;0.85;;;;;;;;;;7313043;19;162799;-17
2022/07/27 10:41:24;;;;;;;1.00;1.00;;;;;;;;;;7315528;19;154448;-16
2022/07/27 10:44:25;;;;;;;2.55;1.25;;;;;;;;;;7316394;19;155003;-16
2022/07/27 10:46:58;;;;;;;1.83;0.98;;;;;;;;;;7315974;19;163529;-17
2022/07/27 10:49:33;;;;;;;2.08;0.98;;;;;;;;;;7315542;19;162745;-25
2022/07/27 10:52:05;;;;;;;3.40;1.27;;;;;;;;;;7315982;19;154486;-17
2022/07/27 10:54:39;;;;;;;4.03;0.95;;;;;;;;;;7315541;19;154051;-17
2022/07/27 10:57:11;;;;;;;5.90;1.15;;;;;;;;;;7314512;19;162236;-17
2022/07/27 10:59:52;;;;;;;2.28;1.20;;;;;;;;;;7315391;19;162986;-16
2022/07/27 11:02:42;;;;;;;3.20;1.00;;;;;;;;;;7315569;19;154843;-16
2022/07/27 11:05:16;;;;;;;5.05;1.23;;;;;;;;;;7315098;19;154653;-17
2022/07/27 11:08:07;;;;;;;3.42;0.90;;;;;;;;;;7314830;19;162330;-16
2022/07/27 11:10:59;;;;;;;1.75;0.98;;;;;;;;;;7313203;19;162913;-16
2022/07/27 11:13:31;;;;;;;3.17;1.10;;;;;;;;;;7315112;19;154848;-17
2022/07/27 11:16:05;;;;;;;3.35;1.20;;;;;;;;;;7314750;19;153999;-17
2022/07/27 11:19:00;;;;;;;1.88;1.02;;;;;;;;;;7312697;19;162696;-17
2022/07/27 11:21:36;;;;;;;2.95;0.90;;;;;;;;;;7314462;19;162455;-17
2022/07/27 11:24:16;;;;;;;4.80;0.88;;;;;;;;;;7314728;19;154560;-17
2022/07/27 11:26:49;;;;;;;3.33;0.90;;;;;;;;;;7314711;19;154057;-17
2022/07/27 11:29:22;;;;;;;7.50;1.27;;;;;;;;;;7313860;19;161907;-17
2022/07/27 11:31:58;;;;;;;2.40;1.25;;;;;;;;;;7314354;19;162774;-16
2022/07/27 11:34:30;;;;;;;3.53;1.00;;;;;;;;;;7314716;19;156394;-17
2022/07/27 11:37:13;;;;;;;2.25;1.23;;;;;;;;;;7314374;19;154041;-17
2022/07/27 11:39:44;;;;;;;4.32;1.10;;;;;;;;;;7312654;19;162734;-17
2022/07/27 11:42:39;;;;;;;1.98;1.02;;;;;;;;;;7313599;19;163379;-16
2022/07/27 11:45:11;;;;;;;5.25;1.00;;;;;;;;;;7314387;19;154448;-17
2022/07/27 11:47:42;;;;;;;1.67;0.82;;;;;;;;;;7313707;19;153892;-17
2022/07/27 11:50:14;;;;;;;2.28;1.00;;;;;;;;;;7313950;19;162169;-16
2022/07/27 11:52:57;;;;;;;3.47;1.10;;;;;;;;;;7313696;19;163368;-16
2022/07/27 11:55:31;;;;;;;1.80;0.93;;;;;;;;;;7314020;19;154459;-16
2022/07/27 11:58:05;;;;;;;2.95;1.02;;;;;;;;;;7313352;19;154049;-17
2022/07/27 12:00:43;;;;;;;1.60;0.90;;;;;;;;;;7313318;19;162838;-16
2022/07/27 12:03:22;;;;;;;4.60;1.20;;;;;;;;;;7313375;19;163266;-16
2022/07/27 12:05:58;;;;;;;2.22;0.85;;;;;;;;;;7313631;19;154526;-17
2022/07/27 12:08:32;;;;;;;1.45;1.00;;;;;;;;;;7313629;19;154220;-16
2022/07/27 12:11:05;;;;;;;2.30;1.10;;;;;;;;;;7313305;19;162200;-16
2022/07/27 12:13:37;;;;;;;3.63;0.98;;;;;;;;;;7312805;19;163422;-17
2022/07/27 12:16:08;;;;;;;2.63;0.90;;;;;;;;;;7313035;19;154055;-17
2022/07/27 12:18:45;;;;;;;1.83;1.05;;;;;;;;;;7311987;19;154063;-16
2022/07/27 12:21:21;;;;;;;3.22;0.93;;;;;;;;;;7310301;19;162747;-17
2022/07/27 12:23:55;;;;;;;3.05;0.90;;;;;;;;;;7312985;19;162831;-17
2022/07/27 12:26:26;;;;;;;3.03;1.20;;;;;;;;;;7313083;19;154972;-17
2022/07/27 12:29:08;;;;;;;1.63;0.70;;;;;;;;;;7312675;19;153980;-17
2022/07/27 12:31:48;;;;;;;1.42;0.88;;;;;;;;;;7309579;19;162819;-17
2022/07/27 12:34:20;;;;;;;2.53;0.90;;;;;;;;;;7312223;19;162837;-17
2022/07/27 12:36:51;;;;;;;2.75;1.00;;;;;;;;;;7312379;19;155034;-17
2022/07/27 12:39:32;;;;;;;2.15;0.93;;;;;;;;;;7310949;19;154401;-17
2022/07/27 12:42:08;;;;;;;1.60;1.00;;;;;;;;;;7310502;19;162684;-16
2022/07/27 12:44:42;;;;;;;1.60;0.90;;;;;;;;;;7310143;19;163406;-16
2022/07/27 12:50:04;;;;;;;3.00;1.00;;;;;;;;;;7311979;19;154635;-16
2022/07/27 12:52:36;;;;;;;1.55;1.08;;;;;;;;;;7308481;19;162376;-16
2022/07/27 12:55:12;;;;;;;2.30;0.90;;;;;;;;;;7311295;19;162786;-16
2022/07/27 12:57:46;;;;;;;3.42;0.93;;;;;;;;;;7311672;19;154574;-18
2022/07/27 13:00:28;;;;;;;2.88;0.90;;;;;;;;;;7308948;19;154293;-17
2022/07/27 13:03:05;;;;;;;2.50;1.38;;;;;;;;;;7308939;19;162389;-17
2022/07/27 13:05:37;;;;;;;2.88;0.90;;;;;;;;;;7311282;19;162774;-15
2022/07/27 13:08:09;;;;;;;1.30;1.08;;;;;;;;;;7311584;19;154834;-14
2022/07/27 13:10:43;;;;;;;2.80;0.90;;;;;;;;;;7311436;19;154726;-14
2022/07/27 13:13:14;;;;;;;4.32;1.27;;;;;;;;;;7311054;19;162940;-15
2022/07/27 13:15:46;;;;;;;2.78;1.52;;;;;;;;;;7310335;19;163460;-15
2022/07/27 13:18:17;;;;;;;6.00;1.50;;;;;;;;;;7311288;19;154553;-15
2022/07/27 13:20:53;;;;;;;1.45;0.90;;;;;;;;;;7309597;19;154795;-15
2022/07/27 13:23:24;;;;;;;2.00;1.10;;;;;;;;;;7310937;19;162321;-16
2022/07/27 13:25:58;;;;;;;42.60;14.07;;;;;;;;;;7310403;19;163322;-17
2022/07/27 13:28:29;;;;;;;19.83;6.95;;;;;;;;;;7311357;19;154625;-18
2022/07/27 13:31:01;;;;;;;31.35;11.35;;;;;;;;;;7308526;19;153969;-18
2022/07/27 13:33:32;;;;;;;31.23;12.45;;;;;;;;;;7309840;19;162276;-17
2022/07/27 13:36:06;;;;;;;31.60;11.57;;;;;;;;;;7310891;19;162829;-17
2022/07/27 13:38:37;;;;;;;43.03;12.98;;;;;;;;;;7310843;19;154923;-17
2022/07/27 13:41:11;;;;;;;39.95;13.15;;;;;;;;;;7310914;19;154401;-16
2022/07/27 13:43:42;;;;;;;37.65;13.95;;;;;;;;;;7310461;19;162315;-17
2022/07/27 13:46:14;;;;;;;37.15;13.13;;;;;;;;;;7310268;19;162875;-16
2022/07/27 13:48:45;;;;;;;39.03;13.90;;;;;;;;;;7310934;19;154455;-16
2022/07/27 13:51:16;;;;;;;34.38;12.70;;;;;;;;;;7310380;19;154121;-16
2022/07/27 13:53:47;;;;;;;33.90;12.93;;;;;;;;;;7310077;19;162282;-17
2022/07/27 13:56:21;;;;;;;32.72;12.95;;;;;;;;;;7310334;19;162778;-15
2022/07/27 13:58:53;;;;;;;47.13;14.45;;;;;;;;;;7310584;19;154824;-15
2022/07/27 14:01:24;;;;;;;35.67;12.93;;;;;;;;;;7310406;19;154021;-15
2022/07/27 14:03:55;;;;;;;37.35;13.82;;;;;;;;;;7310043;19;162882;-16
2022/07/27 14:06:27;;;;;;;31.38;12.93;;;;;;;;;;7309397;19;163409;-16
2022/07/27 14:08:58;;;;;;;38.95;12.80;;;;;;;;;;7310259;19;154945;-16
2022/07/27 14:11:32;;;;;;;41.92;13.85;;;;;;;;;;7310238;19;153961;-17
2022/07/27 14:14:04;;;;;;;35.53;12.75;;;;;;;;;;7309442;19;163029;-17
2022/07/27 14:16:37;;;;;;;40.88;13.07;;;;;;;;;;7309469;19;162854;-17
2022/07/27 14:19:08;;;;;;;;;;;;;;;;;;7310676;19;154493;-18
2022/07/27 14:21:42;;;;;;;36.05;12.00;;;;;;;;;;7309883;19;153724;-16
2022/07/27 14:24:14;;;;;;;32.28;11.80;;;;;;;;;;7309525;19;162936;-16
2022/07/27 14:26:47;;;;;;;39.33;12.25;;;;;;;;;;7309223;19;162797;-17
2022/07/27 14:29:19;;;;;;;36.05;12.88;;;;;;;;;;7309225;19;154489;-17
2022/07/27 14:31:50;;;;;;;28.73;11.57;;;;;;;;;;7306745;19;154108;-16
2022/07/27 14:34:21;;;;;;;30.00;12.30;;;;;;;;;;7306891;19;162359;-16
2022/07/27 14:36:52;;;;;;;35.38;12.02;;;;;;;;;;7308570;19;162761;-16
2022/07/27 14:39:24;;;;;;;35.05;13.65;;;;;;;;;;7307193;19;154553;-16
2022/07/27 14:41:58;;;;;;;34.97;12.38;;;;;;;;;;7308436;19;154519;-16
2022/07/27 14:44:29;;;;;;;34.33;13.02;;;;;;;;;;7307764;19;161774;-16
2022/07/27 14:47:00;;;;;;;27.60;11.30;;;;;;;;;;7315489;19;162801;-17
2022/07/27 14:49:32;;;;;;;35.50;12.30;;;;;;;;;;7315826;19;154791;-17
2022/07/27 14:52:04;;;;;;;33.55;13.18;;;;;;;;;;7313732;19;154102;-16
2022/07/27 14:54:36;;;;;;;35.92;12.50;;;;;;;;;;7316058;19;162278;-16
2022/07/27 14:57:11;;;;;;;28.83;11.18;;;;;;;;;;7315191;19;163088;-16
2022/07/27 14:59:42;;;;;;;29.77;11.80;;;;;;;;;;7313788;19;155102;-16
2022/07/27 15:02:13;;;;;;;29.88;11.70;;;;;;;;;;7315411;19;154184;-16
2022/07/27 15:04:45;;;;;;;30.30;12.18;;;;;;;;;;7314840;19;162298;-16
2022/07/27 15:07:16;;;;;;;30.67;12.10;;;;;;;;;;7314649;19;162907;-16
2022/07/27 15:09:47;;;;;;;37.55;12.70;;;;;;;;;;7315801;19;154647;-16
2022/07/27 15:12:21;;;;;;;31.77;12.25;;;;;;;;;;7315290;19;154091;-16
2022/07/27 15:14:52;;;;;;;32.92;11.98;;;;;;;;;;7314859;19;162269;-16
2022/07/27 15:17:24;;;;;;;26.98;11.65;;;;;;;;;;7314822;19;162876;-16